Time;durP1;ratioP1;P1;durP2;ratioP2;P2;SDS_P1;SDS_P2;PMS_P1;PMS_P2;Temp;Humidity;BMP_temperature;BMP_pressure;BME280_temperature;BME280_humidity;BME280_pressure;Samples;Min_cycle;Max_cycle;Signal;HPM_P1;HPM_P2
2022/05/31 00:00:46;;;;;;;;;;;;;;;8.23;100.00;101441.81;2612892;36;19958;-58
2022/05/31 00:03:15;;;;;;;;;;;;;;;8.27;100.00;101437.09;2613102;36;20030;-59
2022/05/31 00:05:43;;;;;;;;;;;;;;;8.37;100.00;101443.53;2613619;36;19947;-56
2022/05/31 00:08:11;;;;;;;;;;;;;;;8.24;100.00;101443.56;2612154;36;19950;-59
2022/05/31 00:10:41;;;;;;;;;;;;;;;8.26;100.00;101443.44;2613157;36;20038;-59
2022/05/31 00:13:09;;;;;;;;;;;;;;;8.29;100.00;101435.19;2613521;36;20034;-59
2022/05/31 00:15:37;;;;;;;;;;;;;;;8.29;100.00;101429.81;2612240;36;19974;-56
2022/05/31 00:18:06;;;;;;;;;;;;;;;8.27;100.00;101431.72;2612569;36;19966;-59
2022/05/31 00:20:34;;;;;;;;;;;;;;;8.22;100.00;101425.84;2613115;36;20050;-57
2022/05/31 00:23:02;;;;;;;;;;;;;;;8.07;100.00;101431.28;2612651;36;19985;-59
2022/05/31 00:25:30;;;;;;;;;;;;;;;8.13;100.00;101426.50;2606827;36;19970;-58
2022/05/31 00:28:00;;;;;;;;;;;;;;;8.10;100.00;101424.88;2613289;36;20019;-59
2022/05/31 00:30:28;;;;;;;;;;;;;;;8.04;100.00;101419.94;2607496;36;19986;-57
2022/05/31 00:32:57;;;;;;;;;;;;;;;8.13;100.00;101429.16;2612470;36;19951;-57
2022/05/31 00:35:29;;;;;;;;;;;;;;;8.12;100.00;101428.28;2613366;36;20030;-58
2022/05/31 00:37:58;;;;;;;;;;;;;;;8.07;100.00;101422.41;2613030;36;20544;-58
2022/05/31 00:40:28;;;;;;;;;;;;;;;8.00;100.00;101423.78;2612578;36;20038;-58
2022/05/31 00:42:58;;;;;;;;;;;;;;;7.97;100.00;101419.50;2613391;36;20037;-60
2022/05/31 00:45:32;;;;;;;;;;;;;;;7.91;100.00;101424.44;2613514;36;20532;-57
2022/05/31 00:48:00;;;;;;;;;;;;;;;7.93;100.00;101426.03;2613268;31;20139;-58
2022/05/31 00:50:31;;;;;;;;;;;;;;;7.97;100.00;101427.53;2614148;36;20049;-57
2022/05/31 00:53:01;;;;;;;;;;;;;;;7.97;100.00;101419.50;2613873;36;20739;-59
2022/05/31 00:55:31;;;;;;;;;;;;;;;8.04;100.00;101419.94;2614089;36;19970;-57
2022/05/31 00:58:01;;;;;;;;;;;;;;;7.99;100.00;101433.63;2614047;36;19953;-58
2022/05/31 01:00:32;;;;;;;;;;;;;;;7.97;100.00;101424.84;2613580;31;19947;-59
2022/05/31 01:03:00;;;;;;;;;;;;;;;8.10;100.00;101429.34;2612679;31;20504;-60
2022/05/31 01:05:29;;;;;;;;;;;;;;;8.13;100.00;101421.13;2614449;36;20049;-60
2022/05/31 01:07:57;;;;;;;;;;;;;;;8.10;100.00;101418.63;2613512;36;19946;-57
2022/05/31 01:10:25;;;;;;;;;;;;;;;8.13;100.00;101419.28;2613963;36;20045;-58
2022/05/31 01:12:55;;;;;;;;;;;;;;;8.14;100.00;101417.47;2613823;36;19973;-58
2022/05/31 01:15:23;;;;;;;;;;;;;;;8.14;100.00;101415.66;2613603;36;19950;-58
2022/05/31 01:17:54;;;;;;;;;;;;;;;8.20;100.00;101408.97;2613657;36;20077;-59
2022/05/31 01:20:25;;;;;;;;;;;;;;;8.19;100.00;101409.97;2613406;36;19972;-57
2022/05/31 01:22:55;;;;;;;;;;;;;;;8.15;100.00;101416.50;2613394;36;19950;-59
2022/05/31 01:25:28;;;;;;;;;;;;;;;8.19;100.00;101418.00;2614129;36;19981;-59
2022/05/31 01:28:03;;;;;;;;;;;;;;;8.30;100.00;101415.41;2614006;36;20034;-60
2022/05/31 01:30:32;;;;;;;;;;;;;;;8.26;100.00;101424.66;2606664;36;20057;-57
2022/05/31 01:33:03;;;;;;;;;;;;;;;8.37;100.00;101413.19;2612409;36;19946;-59
2022/05/31 01:35:35;;;;;;;;;;;;;;;8.42;100.00;101419.06;2607984;36;19951;-57
2022/05/31 01:38:06;;;;;;;;;;;;;;;8.44;100.00;101410.94;2614080;36;20556;-61
2022/05/31 01:40:39;;;;;;;;;;;;;;;8.45;100.00;101418.03;2613551;36;19954;-58
2022/05/31 01:43:07;;;;;;;;;;;;;;;8.53;100.00;101410.31;2613839;36;19958;-58
2022/05/31 01:45:38;;;;;;;;;;;;;;;8.46;100.00;101403.66;2613706;36;20055;-59
2022/05/31 01:48:07;;;;;;;;;;;;;;;8.47;100.00;101406.22;2613595;36;19946;-57
2022/05/31 01:50:38;;;;;;;;;;;;;;;8.51;100.00;101401.50;2613917;36;19950;-57
2022/05/31 01:53:07;;;;;;;;;;;;;;;8.59;100.00;101405.34;2613279;36;19946;-59
2022/05/31 01:55:37;;;;;;;;;;;;;;;8.58;100.00;101406.34;2613942;36;20291;-57
2022/05/31 01:58:08;;;;;;;;;;;;;;;8.55;100.00;101408.34;2613510;36;19954;-56
2022/05/31 02:00:37;;;;;;;;;;;;;;;8.49;100.00;101408.81;2613541;36;20051;-58
2022/05/31 02:03:07;;;;;;;;;;;;;;;8.50;100.00;101397.09;2614269;31;20435;-59
2022/05/31 02:05:38;;;;;;;;;;;;;;;8.49;100.00;101398.91;2613463;36;19966;-59
2022/05/31 02:08:07;;;;;;;;;;;;;;;8.56;100.00;101396.66;2613377;36;20073;-57
2022/05/31 02:10:35;;;;;;;;;;;;;;;8.59;100.00;101399.97;2613485;36;19946;-60
2022/05/31 02:13:03;;;;;;;;;;;;;;;8.58;100.00;101392.03;2614048;36;19966;-60
2022/05/31 02:15:31;;;;;;;;;;;;;;;8.62;100.00;101393.53;2614083;31;20042;-58
2022/05/31 02:17:59;;;;;;;;;;;;;;;8.71;100.00;101387.50;2613201;36;19951;-59
2022/05/31 02:20:27;;;;;;;;;;;;;;;8.62;100.00;101388.16;2613992;36;20057;-58
2022/05/31 02:22:57;;;;;;;;;;;;;;;8.59;100.00;101388.41;2613444;36;20022;-59
2022/05/31 02:25:25;;;;;;;;;;;;;;;8.57;100.00;101390.34;2613098;36;20061;-57
2022/05/31 02:27:53;;;;;;;;;;;;;;;8.55;100.00;101393.13;2613895;31;19954;-58
2022/05/31 02:30:21;;;;;;;;;;;;;;;8.42;100.00;101400.28;2613349;31;19950;-60
2022/05/31 02:32:50;;;;;;;;;;;;;;;8.44;100.00;101394.84;2612960;36;20059;-59
2022/05/31 02:35:18;;;;;;;;;;;;;;;8.49;100.00;101392.69;2607319;36;20538;-57
2022/05/31 02:37:46;;;;;;;;;;;;;;;8.43;100.00;101393.97;2613285;36;20469;-59
2022/05/31 02:40:16;;;;;;;;;;;;;;;8.46;100.00;101390.25;2613019;36;20026;-58
2022/05/31 02:42:44;;;;;;;;;;;;;;;8.49;100.00;101393.56;2607385;31;20022;-59
2022/05/31 02:45:12;;;;;;;;;;;;;;;8.51;100.00;101388.06;2612904;36;20018;-59
2022/05/31 02:47:41;;;;;;;;;;;;;;;8.57;100.00;101387.66;2614094;31;20467;-58
2022/05/31 02:50:09;;;;;;;;;;;;;;;8.61;100.00;101386.44;2613256;36;19969;-59
2022/05/31 02:52:37;;;;;;;;;;;;;;;8.54;100.00;101385.19;2613055;36;20088;-60
2022/05/31 02:55:07;;;;;;;;;;;;;;;8.60;100.00;101390.13;2613063;36;20049;-57
2022/05/31 02:57:37;;;;;;;;;;;;;;;8.58;100.00;101384.00;2614031;36;19981;-59
2022/05/31 03:00:06;;;;;;;;;;;;;;;8.65;100.00;101377.22;2614225;36;19977;-59
2022/05/31 03:02:40;;;;;;;;;;;;;;;8.66;100.00;101373.56;2614705;54;19973;-57
2022/05/31 03:05:09;;;;;;;;;;;;;;;8.62;100.00;101380.13;2612488;36;20428;-58
2022/05/31 03:07:37;;;;;;;;;;;;;;;8.69;100.00;101380.56;2613785;36;20451;-58
2022/05/31 03:10:05;;;;;;;;;;;;;;;8.68;100.00;101378.81;2613611;36;19946;-59
2022/05/31 03:12:36;;;;;;;;;;;;;;;8.56;100.00;101375.19;2614136;36;20038;-59
2022/05/31 03:15:09;;;;;;;;;;;;;;;8.53;100.00;101376.28;2612910;36;19946;-58
2022/05/31 03:17:38;;;;;;;;;;;;;;;8.52;100.00;101371.03;2613421;36;20043;-60
2022/05/31 03:20:08;;;;;;;;;;;;;;;8.58;100.00;101368.75;2612972;31;20098;-61
2022/05/31 03:22:40;;;;;;;;;;;;;;;8.54;100.00;101367.25;2612570;36;19989;-59
2022/05/31 03:25:10;;;;;;;;;;;;;;;8.52;100.00;101365.66;2612843;36;20029;-57
2022/05/31 03:27:38;;;;;;;;;;;;;;;8.48;100.00;101374.88;2612909;36;19958;-60
2022/05/31 03:30:10;;;;;;;;;;;;;;;8.47;100.00;101370.50;2613672;36;19954;-57
2022/05/31 03:32:46;;;;;;;;;;;;;;;8.50;100.00;101372.97;2612462;36;19973;-58
2022/05/31 03:35:14;;;;;;;;;;;;;;;8.49;100.00;101363.19;2613022;36;19970;-57
2022/05/31 03:37:42;;;;;;;;;;;;;;;8.51;100.00;101366.63;2611485;36;19950;-59
2022/05/31 03:40:11;;;;;;;;;;;;;;;8.56;100.00;101357.25;2612750;36;19990;-59
2022/05/31 03:42:39;;;;;;;;;;;;;;;8.64;100.00;101359.38;2606710;36;19951;-59
2022/05/31 03:45:10;;;;;;;;;;;;;;;8.67;100.00;101358.31;2606630;36;19954;-60
2022/05/31 03:47:38;;;;;;;;;;;;;;;8.67;100.00;101356.50;2612884;36;20073;-66
2022/05/31 03:50:07;;;;;;;;;;;;;;;8.68;100.00;101355.53;2613608;31;19958;-65
2022/05/31 03:52:35;;;;;;;;;;;;;;;8.77;100.00;101354.00;2612936;36;19975;-59
2022/05/31 03:55:03;;;;;;;;;;;;;;;8.76;100.00;101353.16;2612385;36;20034;-58
2022/05/31 03:57:31;;;;;;;;;;;;;;;8.83;100.00;101352.69;2612983;36;19947;-60
2022/05/31 03:59:59;;;;;;;;;;;;;;;8.91;100.00;101355.69;2613074;36;20069;-66
2022/05/31 04:02:30;;;;;;;;;;;;;;;8.94;100.00;101355.44;2613479;36;20355;-64
2022/05/31 04:04:58;;;;;;;;;;;;;;;8.91;100.00;101361.06;2613011;36;20066;-60
2022/05/31 04:07:26;;;;;;;;;;;;;;;8.99;100.00;101360.47;2613136;36;19989;-58
2022/05/31 04:09:54;;;;;;;;;;;;;;;9.00;100.00;101352.31;2613129;31;20548;-60
2022/05/31 04:12:22;;;;;;;;;;;;;;;8.99;100.00;101358.63;2612951;36;19975;-62
2022/05/31 04:14:51;;;;;;;;;;;;;;;9.02;100.00;101355.72;2612522;36;19951;-63
2022/05/31 04:17:19;;;;;;;;;;;;;;;9.08;100.00;101357.97;2613096;36;20083;-61
2022/05/31 04:19:50;;;;;;;;;;;;;;;8.98;100.00;101356.06;2612554;36;20087;-58
2022/05/31 04:22:18;;;;;;;;;;;;;;;9.05;100.00;101355.50;2613341;36;20507;-60
2022/05/31 04:24:46;;;;;;;;;;;;;;;9.19;100.00;101359.84;2613418;36;20074;-63
2022/05/31 04:27:17;;;;;;;;;;;;;;;9.29;100.00;101365.41;2614204;36;20382;-65
2022/05/31 04:29:45;;;;;;;;;;;;;;;9.32;100.00;101365.16;2614344;36;19951;-58
2022/05/31 04:32:13;;;;;;;;;;;;;;;9.31;100.00;101358.06;2613462;36;19973;-58
2022/05/31 04:34:41;;;;;;;;;;;;;;;9.50;100.00;101367.44;2614005;36;20045;-58
2022/05/31 04:37:12;;;;;;;;;;;;;;;9.57;100.00;101363.28;2614217;36;20022;-67
2022/05/31 04:39:40;;;;;;;;;;;;;;;9.53;100.00;101367.19;2613609;36;19958;-66
2022/05/31 04:42:10;;;;;;;;;;;;;;;9.62;100.00;101355.75;2613858;36;20073;-58
2022/05/31 04:44:38;;;;;;;;;;;;;;;9.65;100.00;101364.41;2607966;36;19951;-58
2022/05/31 04:47:07;;;;;;;;;;;;;;;9.75;100.00;101366.41;2608134;36;22142;-60
2022/05/31 04:49:36;;;;;;;;;;;;;;;9.74;100.00;101365.53;2613804;36;20007;-67
2022/05/31 04:52:04;;;;;;;;;;;;;;;9.78;100.00;101360.78;2614413;36;20379;-65
2022/05/31 04:54:34;;;;;;;;;;;;;;;9.93;100.00;101361.44;2613046;36;20033;-58
2022/05/31 04:57:04;;;;;;;;;;;;;;;9.87;100.00;101362.75;2614383;36;20420;-59
2022/05/31 04:59:32;;;;;;;;;;;;;;;9.92;100.00;101357.03;2614262;31;20368;-59
2022/05/31 05:02:00;;;;;;;;;;;;;;;9.96;100.00;101359.34;2613742;36;19974;-63
2022/05/31 05:04:28;;;;;;;;;;;;;;;9.99;100.00;101360.94;2612312;36;19946;-67
2022/05/31 05:06:56;;;;;;;;;;;;;;;10.21;100.00;101352.03;2615169;31;20075;-60
2022/05/31 05:09:24;;;;;;;;;;;;;;;10.14;100.00;101349.00;2613338;36;19962;-61
2022/05/31 05:11:55;;;;;;;;;;;;;;;10.20;100.00;101360.22;2615241;31;20436;-61
2022/05/31 05:14:23;;;;;;;;;;;;;;;9.98;100.00;101353.84;2612920;31;19954;-64
2022/05/31 05:16:53;;;;;;;;;;;;;;;9.95;100.00;101354.97;2612702;36;19954;-64
2022/05/31 05:19:21;;;;;;;;;;;;;;;10.04;100.00;101353.41;2613473;36;19946;-60
2022/05/31 05:21:49;;;;;;;;;;;;;;;10.21;100.00;101351.19;2614228;36;19982;-59
2022/05/31 05:24:17;;;;;;;;;;;;;;;10.41;100.00;101355.00;2612504;36;19947;-61
2022/05/31 05:26:45;;;;;;;;;;;;;;;10.49;100.00;101339.94;2612429;36;20075;-63
2022/05/31 05:31:57;;;;;;;;;;;;;;;10.72;100.00;101336.38;2613011;36;19971;-61
2022/05/31 05:34:25;;;;;;;;;;;;;;;10.63;100.00;101330.78;2612831;36;19950;-60
2022/05/31 05:36:53;;;;;;;;;;;;;;;11.12;100.00;101327.72;2613786;36;19973;-66
2022/05/31 05:39:21;;;;;;;;;;;;;;;11.18;100.00;101325.34;2612670;36;20061;-66
2022/05/31 05:41:49;;;;;;;;;;;;;;;10.87;100.00;101325.19;2613755;31;20066;-61
2022/05/31 05:44:20;;;;;;;;;;;;;;;10.99;100.00;101330.56;2612950;36;19978;-60
2022/05/31 05:46:48;;;;;;;;;;;;;;;11.08;100.00;101335.19;2607410;36;20539;-61
2022/05/31 05:49:16;;;;;;;;;;;;;;;11.23;100.00;101327.66;2613565;36;20052;-66
2022/05/31 05:51:46;;;;;;;;;;;;;;;11.44;100.00;101327.69;2607475;36;19958;-67
2022/05/31 05:54:14;;;;;;;;;;;;;;;11.46;100.00;101338.34;2612819;36;20079;-61
2022/05/31 05:56:42;;;;;;;;;;;;;;;11.27;100.00;101333.66;2613481;36;19950;-61
2022/05/31 05:59:10;;;;;;;;;;;;;;;11.48;100.00;101333.66;2612985;36;20049;-58
2022/05/31 06:01:43;;;;;;;;;;;;;;;11.69;100.00;101339.06;2612712;36;19954;-64
2022/05/31 06:04:14;;;;;;;;;;;;;;;11.74;100.00;101336.84;2612190;36;20030;-59
2022/05/31 06:06:44;;;;;;;;;;;;;;;11.70;100.00;101332.69;2613114;36;19958;-61
2022/05/31 06:09:14;;;;;;;;;;;;;;;11.73;100.00;101335.13;2611452;36;19970;-60
2022/05/31 06:11:44;;;;;;;;;;;;;;;12.04;100.00;101322.56;2613715;36;20046;-62
2022/05/31 06:14:14;;;;;;;;;;;;;;;12.62;100.00;101326.47;2613131;36;20295;-66
2022/05/31 06:16:47;;;;;;;;;;;;;;;12.90;100.00;101323.97;2613329;36;20079;-61
2022/05/31 06:19:18;;;;;;;;;;;;;;;12.87;100.00;101321.56;2612935;36;19951;-60
2022/05/31 06:21:48;;;;;;;;;;;;;;;13.08;100.00;101329.53;2614079;36;20435;-59
2022/05/31 06:24:17;;;;;;;;;;;;;;;13.37;100.00;101317.91;2613675;31;19954;-67
2022/05/31 06:26:45;;;;;;;;;;;;;;;13.24;100.00;101321.72;2613923;36;19958;-59
2022/05/31 06:29:14;;;;;;;;;;;;;;;13.30;100.00;101320.31;2613757;36;19947;-61
2022/05/31 06:31:44;;;;;;;;;;;;;;;14.11;100.00;101317.19;2613513;36;20440;-61
2022/05/31 06:34:12;;;;;;;;;;;;;;;14.06;100.00;101316.78;2613544;36;19947;-58
2022/05/31 06:36:42;;;;;;;;;;;;;;;13.85;100.00;101311.56;2613687;36;20033;-64
2022/05/31 06:39:10;;;;;;;;;;;;;;;14.02;100.00;101308.09;2612934;36;20337;-61
2022/05/31 06:41:38;;;;;;;;;;;;;;;14.34;100.00;101314.13;2610242;36;19951;-62
2022/05/31 06:44:06;;;;;;;;;;;;;;;14.97;100.00;101307.91;2613622;36;20503;-60
2022/05/31 06:46:34;;;;;;;;;;;;;;;14.82;100.00;101296.72;2611890;36;19969;-60
2022/05/31 06:49:05;;;;;;;;;;;;;;;14.98;100.00;101298.75;2630431;36;20078;-64
2022/05/31 06:56:58;;;;;;;;;;;;;;;14.30;100.00;101308.13;2607768;31;20448;-63
2022/05/31 06:59:26;;;;;;;;;;;;;;;14.26;100.00;101309.41;2605277;36;19950;-62
2022/05/31 07:02:03;;;;;;;;;;;;;;;14.83;100.00;101305.72;2613119;31;20421;-61
2022/05/31 07:04:34;;;;;;;;;;;;;;;15.16;100.00;101297.91;2612812;31;19950;-60
2022/05/31 07:07:02;;;;;;;;;;;;;;;14.89;100.00;101307.81;2612214;36;19946;-64
2022/05/31 07:09:30;;;;;;;;;;;;;;;14.78;100.00;101299.91;2609545;36;19985;-65
2022/05/31 07:11:59;;;;;;;;;;;;;;;15.02;100.00;101294.75;2612489;36;19946;-60
2022/05/31 07:14:27;;;;;;;;;;;;;;;15.37;100.00;101286.72;2613462;36;19953;-58
2022/05/31 07:16:55;;;;;;;;;;;;;;;15.50;100.00;101289.03;2613475;36;19946;-60
2022/05/31 07:19:23;;;;;;;;;;;;;;;15.66;100.00;101291.88;2613971;36;20422;-68
2022/05/31 07:21:54;;;;;;;;;;;;;;;15.93;100.00;101292.78;2613823;36;20071;-66
2022/05/31 07:24:22;;;;;;;;;;;;;;;15.94;100.00;101287.19;2612842;36;20114;-59
2022/05/31 07:26:50;;;;;;;;;;;;;;;15.98;100.00;101282.28;2614652;31;20453;-60
2022/05/31 07:29:18;;;;;;;;;;;;;;;15.83;100.00;101283.88;2613888;36;20584;-61
2022/05/31 07:31:47;;;;;;;;;;;;;;;15.97;100.00;101280.56;2613768;36;20309;-64
2022/05/31 07:34:15;;;;;;;;;;;;;;;15.92;100.00;101270.19;2613349;31;19974;-68
2022/05/31 07:36:44;;;;;;;;;;;;;;;15.86;100.00;101284.41;2613726;36;19954;-58
2022/05/31 07:39:19;;;;;;;;;;;;;;;15.61;100.00;101279.81;2612753;31;19967;-60
2022/05/31 07:41:49;;;;;;;;;;;;;;;15.56;100.00;101283.84;2614129;31;19950;-61
2022/05/31 07:44:18;;;;;;;;;;;;;;;15.50;100.00;101280.91;2612994;36;20037;-64
2022/05/31 07:46:46;;;;;;;;;;;;;;;15.29;100.00;101276.66;2613196;36;20038;-60
2022/05/31 07:49:15;;;;;;;;;;;;;;;15.50;100.00;101276.34;2612248;36;19981;-60
2022/05/31 07:51:43;;;;;;;;;;;;;;;15.67;100.00;101276.47;2612285;36;19954;-59
2022/05/31 07:54:13;;;;;;;;;;;;;;;15.73;100.00;101273.94;2611896;36;20065;-60
2022/05/31 07:56:44;;;;;;;;;;;;;;;15.69;100.00;101269.84;2614926;31;20360;-63
2022/05/31 07:59:12;;;;;;;;;;;;;;;15.61;100.00;101269.81;2608634;31;20061;-58
2022/05/31 08:01:41;;;;;;;;;;;;;;;15.67;100.00;101269.16;2613848;36;19983;-60
2022/05/31 08:04:13;;;;;;;;;;;;;;;16.16;100.00;101262.34;2615332;36;20017;-60
2022/05/31 08:06:41;;;;;;;;;;;;;;;15.75;100.00;101266.50;2609095;36;19957;-68
2022/05/31 08:09:09;;;;;;;;;;;;;;;15.75;100.00;101273.78;2613908;36;20451;-65
2022/05/31 08:11:37;;;;;;;;;;;;;;;16.11;100.00;101271.81;2613310;36;19950;-59
2022/05/31 08:14:12;;;;;;;;;;;;;;;16.02;100.00;101269.22;2613812;31;19946;-60
2022/05/31 08:16:40;;;;;;;;;;;;;;;16.23;100.00;101269.66;2613596;36;20410;-59
2022/05/31 08:19:08;;;;;;;;;;;;;;;16.47;100.00;101265.31;2613500;36;19989;-65
2022/05/31 08:21:39;;;;;;;;;;;;;;;16.25;100.00;101261.34;2613395;36;21704;-63
2022/05/31 08:24:08;;;;;;;;;;;;;;;16.11;100.00;101263.66;2612820;36;19973;-61
2022/05/31 08:26:37;;;;;;;;;;;;;;;16.14;100.00;101264.38;2613366;36;20079;-60
2022/05/31 08:29:05;;;;;;;;;;;;;;;16.11;100.00;101257.41;2614312;36;20005;-60
2022/05/31 08:31:37;;;;;;;;;;;;;;;16.38;100.00;101261.72;2613313;31;19958;-62
2022/05/31 08:34:06;;;;;;;;;;;;;;;16.47;100.00;101262.59;2612038;36;19970;-61
2022/05/31 08:36:34;;;;;;;;;;;;;;;16.40;100.00;101261.56;2613310;36;19974;-62
2022/05/31 08:39:03;;;;;;;;;;;;;;;16.40;100.00;101265.16;2613838;36;20454;-59
2022/05/31 08:41:32;;;;;;;;;;;;;;;16.30;100.00;101259.00;2614475;36;20052;-60
2022/05/31 08:44:05;;;;;;;;;;;;;;;16.77;100.00;101263.03;2614384;36;20336;-64
2022/05/31 08:46:42;;;;;;;;;;;;;;;17.07;100.00;101272.44;2614152;36;19954;-61
2022/05/31 08:49:15;;;;;;;;;;;;;;;17.21;100.00;101267.34;2613040;36;19957;-60
2022/05/31 08:51:52;;;;;;;;;;;;;;;17.10;100.00;101274.81;2612764;36;19950;-63
2022/05/31 08:57:08;;;;;;;;;;;;;;;16.75;99.44;101268.63;2613652;36;20330;-62
2022/05/31 08:59:41;;;;;;;;;;;;;;;17.11;100.00;101272.97;2613683;36;19946;-63
2022/05/31 09:02:16;;;;;;;;;;;;;;;17.24;100.00;101264.28;2613721;36;20046;-62
2022/05/31 09:04:46;;;;;;;;;;;;;;;17.53;100.00;101261.03;2613232;36;19950;-58
2022/05/31 09:07:17;;;;;;;;;;;;;;;17.26;99.23;101268.53;2607300;36;19977;-60
2022/05/31 09:09:52;;;;;;;;;;;;;;;17.33;100.00;101263.28;2607928;36;19973;-69
2022/05/31 09:12:24;;;;;;;;;;;;;;;17.11;100.00;101268.38;2614006;31;19950;-58
2022/05/31 09:14:57;;;;;;;;;;;;;;;17.45;95.53;101270.06;2613657;36;19947;-61
2022/05/31 09:17:33;;;;;;;;;;;;;;;17.94;91.29;101268.31;2613612;36;20348;-59
2022/05/31 09:20:04;;;;;;;;;;;;;;;17.98;93.50;101261.50;2612037;36;19951;-64
2022/05/31 09:22:33;;;;;;;;;;;;;;;18.48;93.34;101253.97;2612807;36;19958;-60
2022/05/31 09:25:02;;;;;;;;;;;;;;;18.27;90.08;101257.28;2612155;36;20424;-57
2022/05/31 09:27:38;;;;;;;;;;;;;;;18.45;89.61;101255.16;2616638;36;19954;-61
2022/05/31 09:30:10;;;;;;;;;;;;;;;18.24;92.71;101252.19;2612328;31;19957;-66
2022/05/31 09:32:48;;;;;;;;;;;;;;;18.43;85.59;101245.47;2612444;36;19947;-61
2022/05/31 09:35:24;;;;;;;;;;;;;;;18.53;88.25;101249.66;2614306;36;20642;-60
2022/05/31 09:38:02;;;;;;;;;;;;;;;17.64;99.73;101257.97;2613923;36;19947;-59
2022/05/31 09:40:35;;;;;;;;;;;;;;;17.40;100.00;101255.28;2614632;36;20363;-63
2022/05/31 09:43:06;;;;;;;;;;;;;;;17.48;100.00;101253.41;2613219;36;19951;-58
2022/05/31 09:45:40;;;;;;;;;;;;;;;17.76;97.39;101247.56;2613402;36;20460;-61
2022/05/31 09:48:11;;;;;;;;;;;;;;;18.67;95.38;101241.75;2613283;36;20066;-66
2022/05/31 09:50:44;;;;;;;;;;;;;;;18.94;100.00;101243.13;2612991;36;19958;-60
2022/05/31 09:58:36;;;;;;;;;;;;;;;18.12;77.22;101238.13;2614389;36;19946;-59
2022/05/31 10:01:13;;;;;;;;;;;;;;;18.32;83.59;101238.53;2612802;36;19997;-61
2022/05/31 10:03:45;;;;;;;;;;;;;;;18.78;76.01;101237.75;2612877;31;19950;-59
2022/05/31 10:06:16;;;;;;;;;;;;;;;19.06;74.90;101232.63;2612488;31;19981;-67
2022/05/31 10:08:47;;;;;;;;;;;;;;;19.09;80.21;101224.06;2608248;36;20041;-66
2022/05/31 10:11:16;;;;;;;;;;;;;;;18.32;81.13;101227.66;2614250;36;19955;-59
2022/05/31 10:13:49;;;;;;;;;;;;;;;18.06;80.08;101227.94;2608447;36;19953;-60
2022/05/31 10:16:19;;;;;;;;;;;;;;;18.24;90.25;101224.94;2612960;36;19959;-66
2022/05/31 10:18:52;;;;;;;;;;;;;;;18.88;80.90;101228.31;2609004;36;19974;-64
2022/05/31 10:21:31;;;;;;;;;;;;;;;19.30;90.70;101225.25;2612010;36;19950;-61
2022/05/31 10:24:02;;;;;;;;;;;;;;;19.25;68.07;101229.38;2612331;36;19947;-60
2022/05/31 10:26:32;;;;;;;;;;;;;;;19.28;70.15;101221.88;2614157;36;19974;-65
2022/05/31 10:29:03;;;;;;;;;;;;;;;20.45;66.02;101215.75;2614010;36;19997;-60
2022/05/31 10:31:34;;;;;;;;;;;;;;;20.45;71.08;101218.47;2614606;36;20364;-63
2022/05/31 10:34:06;;;;;;;;;;;;;;;19.23;70.20;101219.72;2613841;36;20042;-59
2022/05/31 10:36:35;;;;;;;;;;;;;;;19.05;76.17;101217.28;2614303;36;20451;-64
2022/05/31 10:39:11;;;;;;;;;;;;;;;18.72;71.92;101228.41;2614079;36;19950;-61
2022/05/31 10:41:40;;;;;;;;;;;;;;;18.61;66.22;101226.97;2614424;36;19954;-62
2022/05/31 10:44:13;;;;;;;;;;;;;;;18.51;63.68;101221.72;2614025;36;19950;-61
2022/05/31 10:46:42;;;;;;;;;;;;;;;18.30;67.17;101224.22;2613769;36;19950;-65
2022/05/31 10:49:16;;;;;;;;;;;;;;;18.06;76.45;101219.75;2613845;36;19946;-64
2022/05/31 10:51:50;;;;;;;;;;;;;;;17.50;77.27;101224.16;2632612;36;19965;-60
2022/05/31 10:54:37;;;;;;;;;;;;;;;17.30;78.39;101237.25;2613239;36;19957;-61
2022/05/31 10:57:13;;;;;;;;;;;;;;;17.17;74.41;101237.78;2612540;36;19970;-62
2022/05/31 10:59:46;;;;;;;;;;;;;;;17.57;72.55;101229.75;2610339;36;19973;-58
2022/05/31 11:02:39;;;;;;;;;;;;;;;17.15;83.58;101237.09;2610024;31;19946;-58
2022/05/31 11:05:12;;;;;;;;;;;;;;;17.08;84.45;101233.38;2611731;36;20430;-59
2022/05/31 11:11:27;;;;;;;;;;;;;;;17.23;91.33;101230.81;2610975;31;19946;-61
2022/05/31 11:13:26;;;;;;;;;;;;;;;16.88;80.83;101234.72;2607727;36;20460;-60
2022/05/31 11:16:00;;;;;;;;;;;;;;;16.80;87.58;101240.97;2608088;36;19950;-59
2022/05/31 11:18:44;;;;;;;;;;;;;;;16.77;90.58;101241.31;2612494;36;20431;-59
2022/05/31 11:21:21;;;;;;;;;;;;;;;17.07;90.92;101234.38;2613388;36;19953;-64
2022/05/31 11:23:57;;;;;;;;;;;;;;;17.44;81.58;101235.69;2613259;36;19977;-66
2022/05/31 11:26:37;;;;;;;;;;;;;;;17.55;80.91;101231.78;2613400;36;19946;-59
2022/05/31 11:29:15;;;;;;;;;;;;;;;17.75;83.76;101240.41;2613631;36;20017;-59
2022/05/31 11:31:50;;;;;;;;;;;;;;;17.40;80.80;101244.38;2612969;36;19954;-66
2022/05/31 11:34:26;;;;;;;;;;;;;;;17.73;78.62;101242.47;2612368;36;19971;-62
2022/05/31 11:37:05;;;;;;;;;;;;;;;17.40;80.91;101250.69;2613775;36;19951;-64
2022/05/31 11:39:42;;;;;;;;;;;;;;;17.97;77.02;101233.41;2612948;31;19970;-60
2022/05/31 11:42:20;;;;;;;;;;;;;;;17.58;74.10;101234.16;2613189;36;19950;-63
2022/05/31 11:44:57;;;;;;;;;;;;;;;17.57;95.58;101239.78;2613344;36;19946;-60
2022/05/31 11:47:35;;;;;;;;;;;;;;;17.49;81.68;101244.22;2613481;36;19951;-60
2022/05/31 11:50:09;;;;;;;;;;;;;;;17.36;90.59;101251.19;2614570;31;20516;-62
2022/05/31 11:52:47;;;;;;;;;;;;;;;17.25;83.80;101246.94;2612874;36;20472;-59
2022/05/31 11:55:30;;;;;;;;;;;;;;;17.20;98.41;101247.47;2613501;36;20015;-58
2022/05/31 11:58:07;;;;;;;;;;;;;;;17.24;91.68;101234.38;2613615;36;19954;-61
2022/05/31 12:00:38;;;;;;;;;;;;;;;17.14;89.24;101240.00;2612767;31;20459;-62
2022/05/31 12:03:10;;;;;;;;;;;;;;;17.08;91.93;101241.53;2612642;31;19951;-57
2022/05/31 12:05:43;;;;;;;;;;;;;;;16.68;100.00;101232.28;2613362;36;20820;-64
2022/05/31 12:08:14;;;;;;;;;;;;;;;17.07;100.00;101225.38;2612956;36;19950;-58
2022/05/31 12:10:44;;;;;;;;;;;;;;;17.25;100.00;101233.34;2613115;36;19947;-61
2022/05/31 12:13:15;;;;;;;;;;;;;;;17.15;100.00;101220.78;2613175;36;19953;-62
2022/05/31 12:15:45;;;;;;;;;;;;;;;17.82;100.00;101222.34;2613970;36;19957;-67
2022/05/31 12:18:20;;;;;;;;;;;;;;;18.15;100.00;101232.31;2611796;31;20450;-60
2022/05/31 12:20:53;;;;;;;;;;;;;;;18.70;95.35;101230.50;2613078;36;19946;-60
2022/05/31 12:23:32;;;;;;;;;;;;;;;18.25;100.00;101232.94;2613039;36;19947;-57
2022/05/31 12:26:01;;;;;;;;;;;;;;;18.35;97.90;101232.72;2607315;36;19958;-63
2022/05/31 12:28:33;;;;;;;;;;;;;;;18.25;95.89;101232.09;2613773;36;19947;-59
2022/05/31 12:31:02;;;;;;;;;;;;;;;18.29;93.20;101231.56;2613620;36;19962;-61
2022/05/31 12:33:35;;;;;;;;;;;;;;;18.77;76.81;101236.06;2610608;36;20058;-58
2022/05/31 12:36:04;;;;;;;;;;;;;;;18.67;92.20;101233.59;2612965;36;19989;-65
2022/05/31 12:38:54;;;;;;;;;;;;;;;18.77;81.63;101231.47;2610361;36;19969;-59
2022/05/31 12:41:36;;;;;;;;;;;;;;;18.27;88.99;101224.59;2612779;36;20311;-60
2022/05/31 12:44:04;;;;;;;;;;;;;;;17.41;100.00;101232.50;2613036;31;19954;-63
2022/05/31 12:46:36;;;;;;;;;;;;;;;17.22;100.00;101241.84;2613258;36;19958;-58
2022/05/31 12:49:08;;;;;;;;;;;;;;;16.77;100.00;101239.41;2612342;36;20363;-58
2022/05/31 12:51:36;;;;;;;;;;;;;;;16.79;100.00;101247.41;2613051;36;19950;-60
2022/05/31 12:54:11;;;;;;;;;;;;;;;16.31;100.00;101238.94;2612724;36;19962;-64
2022/05/31 12:56:56;;;;;;;;;;;;;;;16.34;100.00;101244.09;2611736;36;19955;-59
2022/05/31 12:59:39;;;;;;;;;;;;;;;16.21;100.00;101249.09;2613373;36;21037;-58
2022/05/31 13:02:20;;;;;;;;;;;;;;;16.53;100.00;101244.81;2613825;36;20353;-59
2022/05/31 13:04:55;;;;;;;;;;;;;;;16.45;100.00;101249.19;2614357;36;20353;-60
2022/05/31 13:07:41;;;;;;;;;;;;;;;16.71;100.00;101236.50;2613760;31;19970;-62
2022/05/31 13:10:24;;;;;;;;;;;;;;;16.74;100.00;101228.00;2610730;36;19957;-61